Bismarck Municipal Airport Bismarck US
ICAO: KBIS
IATA: BIS
Category: Medium
Scheduled Services: Yes

Elevation: 1661 ft
TransAlt. 18000 ft.

Airport Communications:
APP/DEP:126.3
ATIS:119.35
CTAF:118.3
GND:121.9
ARNG OPS:49.8
GRAND FORKS RDO:122.2
TWR:118.3
UNICOM:122.95

KBIS Zoom In..

If you have problems with the map follow the link
https://www.worldairports.se/pages/airport.php?
ICAO=KBIS

Runways:

(A) RW 03 length 6600 ft width 100 ft
---- / hdg 32

(B) RW 13 length 8794 ft width 150 ft
ILS 111.50 / hdg 131

(C) RW 21 length 6600 ft width 100 ft
---- / hdg 212

(D) RW 31 length 8794 ft width 150 ft
ILS 110.30 / hdg 311

Location; KBIS
Day. 29 / Time. 16.52 Zulu
* Altimeter: 30.10
* Temperature: -05° c. -23°f.
* Wind from: 210° Speed 04 kn.
Dewpoint: -06° c.
Visibility: 1/2 Statute Miles.
Conditions: Freezing fog.

KBIS 291652Z 21004KT 1/2SM FZFG VV003 M05/M06 A3010 RMK AO2 SLP221 I1001 T10501061


Wind From 210°
Speed 04 kn.

 
 
jpsmedia worldairports.se 2020   terms of use